TAF and METAR

Could not understand the following METAR

YPPD 251330Z AUTO 28008KT 9999 // NCD 24/18 Q1013

TAF for Port Hedland International Airport

TAF YPPD 251056Z 2512/2612 29010KT CAVOK FM251500 22005KT CAVOK FM260400 32016KT CAVOK FM261100 28010KT CAVOK
Report created 25. sep 12:56

between 25. sep 14:00 - 26. sep 14:00

wind 10 knots from WNW (290°) Clear sky

From 25. sep 17:00

wind 5 knots from SW (220°) Clear sky

From 26. sep 06:00

wind 16 knots from NW (320°) Clear sky

From 26. sep 13:00

wind 10 knots from W (280°) Clear sky
Port Hedland International Airport in Australia at 6m

Latest 5 airports